Doorwerth, Netherlands
Current Conditions -  °F | °C
As of 12:25 PM on Thursday 23 Oct 2014 (Local Time) from EHDL Reporting Station
Haze Haze  
Wind Chill: 52°   Ceiling: 2700
Heat Index: 52°   Visibility: 6mi
Dew Point: 50°   Wind: 9mph
Humidity: 94%   Direction: 200°SSW
Pressure: 30.18"   Gusts: NA
Location:  51.98°N, 5.8°E
Report Text: EHDL 231025Z AUTO 20008KT 9000 BR OVC027 11/10 Q1022 BLU
Loading
Personal Weather Stations






























Interactive Weather Map
Tropical Storm Tracking
New forecast layout! Learn more

10-Day Weather Forecast

Advertisements
Track Severe Weather on mobile